createdAt,value
2019-01-26T00:00:32.678Z,3.70
2019-01-26T00:05:24.376Z,3.70
2019-01-26T00:10:16.452Z,3.80
2019-01-26T00:15:07.603Z,3.80
2019-01-26T00:19:58.383Z,3.90
2019-01-26T00:24:50.118Z,3.90
2019-01-26T00:29:44.108Z,4.00
2019-01-26T00:34:31.267Z,4.00
2019-01-26T00:39:23.061Z,4.00
2019-01-26T00:44:14.814Z,4.00
2019-01-26T00:49:06.818Z,4.00
2019-01-26T00:53:58.672Z,4.00
2019-01-26T00:58:50.509Z,4.10
2019-01-26T01:03:42.444Z,4.10
2019-01-26T01:08:36.366Z,4.10
2019-01-26T01:13:27.920Z,4.10
2019-01-26T01:18:19.962Z,4.20
2019-01-26T01:23:13.679Z,4.20
2019-01-26T01:28:04.985Z,4.30
2019-01-26T01:32:56.725Z,4.30
2019-01-26T01:37:48.749Z,4.40
2019-01-26T01:42:40.560Z,4.40
2019-01-26T01:47:32.436Z,4.40
2019-01-26T01:52:26.195Z,4.50
2019-01-26T01:57:19.603Z,4.50
2019-01-26T02:02:11.597Z,4.60
2019-01-26T02:07:03.701Z,4.60
2019-01-26T02:11:57.897Z,4.70
2019-01-26T02:16:51.093Z,4.70
2019-01-26T02:21:52.759Z,4.80
2019-01-26T02:26:42.343Z,4.80
2019-01-26T02:31:33.742Z,4.90
2019-01-26T02:36:25.735Z,4.90
2019-01-26T02:41:17.606Z,5.00
2019-01-26T02:46:09.369Z,5.00
2019-01-26T02:51:01.286Z,5.00
2019-01-26T02:55:55.353Z,5.10
2019-01-26T03:00:48.000Z,5.10
2019-01-26T03:05:41.222Z,5.10
2019-01-26T03:10:32.490Z,5.10
2019-01-26T03:15:21.811Z,5.10
2019-01-26T03:20:13.844Z,5.20
2019-01-26T03:25:05.407Z,5.20
2019-01-26T03:29:57.328Z,5.20
2019-01-26T03:34:48.870Z,5.30
2019-01-26T03:39:40.601Z,5.30
2019-01-26T03:44:31.912Z,5.40
2019-01-26T03:49:23.352Z,5.40
2019-01-26T03:54:14.513Z,5.40
2019-01-26T03:59:05.894Z,5.40
2019-01-26T04:03:57.777Z,5.50
2019-01-26T04:08:48.885Z,5.50
2019-01-26T04:13:42.918Z,5.50
2019-01-26T04:18:34.113Z,5.50
2019-01-26T04:23:27.033Z,5.50
2019-01-26T04:28:18.213Z,5.50
2019-01-26T04:33:11.052Z,5.60
2019-01-26T04:38:02.542Z,5.60
2019-01-26T04:42:54.431Z,5.60
2019-01-26T04:47:46.552Z,5.60
2019-01-26T04:52:40.885Z,5.60
2019-01-26T04:57:34.521Z,5.60
2019-01-26T05:02:24.280Z,5.60
2019-01-26T05:07:17.098Z,5.60
2019-01-26T05:12:10.463Z,5.70
2019-01-26T05:17:18.183Z,5.60
2019-01-26T05:22:05.634Z,5.70
2019-01-26T05:26:57.735Z,5.70
2019-01-26T05:31:46.901Z,5.70
2019-01-26T05:36:38.938Z,5.70
2019-01-26T05:41:30.802Z,5.70
2019-01-26T05:46:22.832Z,5.80
2019-01-26T05:51:14.950Z,5.80
2019-01-26T05:56:07.087Z,5.80
2019-01-26T06:00:58.858Z,5.80
2019-01-26T06:06:07.207Z,5.80
2019-01-26T06:11:12.580Z,5.80
2019-01-26T06:15:58.970Z,5.90
2019-01-26T06:21:00.601Z,5.90
2019-01-26T06:25:59.619Z,5.90
2019-01-26T06:30:57.015Z,5.90
2019-01-26T06:36:02.384Z,6.00
2019-01-26T06:40:49.666Z,6.00
2019-01-26T06:45:41.439Z,6.00
2019-01-26T06:50:35.481Z,6.10
2019-01-26T06:55:37.209Z,6.10
2019-01-26T07:00:26.312Z,6.10
2019-01-26T07:05:23.986Z,6.10
2019-01-26T07:10:12.338Z,6.10
2019-01-26T07:15:04.256Z,6.10
2019-01-26T07:19:55.495Z,6.10
2019-01-26T07:24:47.163Z,6.10
2019-01-26T07:29:35.810Z,6.10
2019-01-26T07:34:26.009Z,6.10
2019-01-26T07:39:26.482Z,6.10
2019-01-26T07:44:31.742Z,6.10
2019-01-26T07:49:29.594Z,6.00
2019-01-26T07:54:17.188Z,6.10
2019-01-26T07:59:09.798Z,6.00
2019-01-26T08:03:59.424Z,6.10
2019-01-26T08:09:06.039Z,6.10
2019-01-26T08:13:55.572Z,6.10
2019-01-26T08:18:55.516Z,6.10
2019-01-26T08:23:43.783Z,6.00
2019-01-26T08:28:34.561Z,6.00
2019-01-26T08:33:26.248Z,6.00
2019-01-26T08:38:17.544Z,6.10
2019-01-26T08:43:08.391Z,6.00
2019-01-26T08:48:00.632Z,6.10
2019-01-26T08:52:51.424Z,6.00
2019-01-26T08:57:45.005Z,6.00
2019-01-26T09:02:35.982Z,6.00
2019-01-26T09:07:26.684Z,5.90
2019-01-26T09:12:17.297Z,5.90
2019-01-26T09:17:10.311Z,5.90
2019-01-26T09:22:17.085Z,5.80
2019-01-26T09:27:06.715Z,5.80
2019-01-26T09:31:54.203Z,5.90
2019-01-26T09:36:45.999Z,5.90
2019-01-26T09:41:51.494Z,5.90
2019-01-26T09:46:48.646Z,5.90
2019-01-26T09:51:38.712Z,6.00
2019-01-26T09:56:44.155Z,6.00
2019-01-26T10:01:42.359Z,6.00
2019-01-26T10:06:33.088Z,6.00
2019-01-26T10:11:33.415Z,6.10
2019-01-26T10:16:23.272Z,6.10
2019-01-26T10:21:22.967Z,6.10
2019-01-26T10:26:13.311Z,6.10
2019-01-26T10:31:03.059Z,6.20
2019-01-26T10:35:55.241Z,6.20
2019-01-26T10:40:46.637Z,6.20
2019-01-26T10:45:38.825Z,6.30
2019-01-26T10:50:30.753Z,6.30
2019-01-26T10:55:22.915Z,6.30
2019-01-26T11:00:21.194Z,6.40
2019-01-26T11:05:11.626Z,6.40
2019-01-26T11:10:16.583Z,6.50
2019-01-26T11:15:03.533Z,6.50
2019-01-26T11:20:01.612Z,6.50
2019-01-26T11:24:50.575Z,6.60
2019-01-26T11:26:54.085Z,6.70
2019-01-26T11:32:00.421Z,6.60
2019-01-26T11:36:48.397Z,6.80
2019-01-26T11:41:46.324Z,6.90
2019-01-26T11:46:50.884Z,6.90
2019-01-26T11:51:45.812Z,7.00
2019-01-26T11:56:35.687Z,7.10
2019-01-26T12:01:40.843Z,7.20
2019-01-26T12:06:28.545Z,7.30
2019-01-26T12:11:28.673Z,7.30
2019-01-26T12:16:28.162Z,7.30
2019-01-26T12:21:19.180Z,7.40
2019-01-26T12:26:08.723Z,7.60
2019-01-26T12:31:00.808Z,7.70
2019-01-26T12:36:07.453Z,7.80
2019-01-26T12:40:54.820Z,7.80
2019-01-26T12:46:00.523Z,7.80
2019-01-26T12:51:04.170Z,7.80
2019-01-26T12:56:07.476Z,7.80
2019-01-26T13:01:04.611Z,7.80
2019-01-26T13:06:08.547Z,7.80
2019-01-26T13:11:12.336Z,7.90
2019-01-26T13:16:15.778Z,7.90
2019-01-26T13:21:19.503Z,8.00
2019-01-26T13:26:23.431Z,8.00
2019-01-26T13:31:27.155Z,8.00
2019-01-26T13:36:29.920Z,7.90
2019-01-26T13:41:33.056Z,7.70
2019-01-26T13:46:35.199Z,7.60
2019-01-26T13:51:40.052Z,7.60
2019-01-26T13:56:29.115Z,7.60
2019-01-26T14:01:27.804Z,7.60
2019-01-26T14:06:17.947Z,7.70
2019-01-26T14:11:21.905Z,7.70
2019-01-26T14:16:25.218Z,7.70
2019-01-26T14:21:23.833Z,7.60
2019-01-26T14:26:27.858Z,7.50
2019-01-26T14:31:30.898Z,7.50
2019-01-26T14:36:34.023Z,7.40
2019-01-26T14:41:22.767Z,7.40
2019-01-26T14:46:25.734Z,7.40
2019-01-26T14:51:29.425Z,7.40
2019-01-26T14:56:33.439Z,7.30
2019-01-26T15:01:22.448Z,7.20
2019-01-26T15:06:27.652Z,7.10
2019-01-26T15:11:31.049Z,7.00
2019-01-26T15:16:34.089Z,6.90
2019-01-26T15:21:35.456Z,6.90
2019-01-26T15:26:36.823Z,6.90
2019-01-26T15:31:34.065Z,6.90
2019-01-26T15:36:24.072Z,6.90
2019-01-26T15:41:23.263Z,6.90
2019-01-26T15:46:11.713Z,6.90
2019-01-26T15:51:17.025Z,6.90
2019-01-26T15:56:04.772Z,6.90
2019-01-26T16:01:08.794Z,6.90
2019-01-26T16:06:12.459Z,6.90
2019-01-26T16:11:01.247Z,6.90
2019-01-26T16:16:07.977Z,6.90
2019-01-26T16:20:58.112Z,6.80
2019-01-26T16:25:57.503Z,6.80
2019-01-26T16:31:03.886Z,6.70
2019-01-26T16:36:05.953Z,6.70
2019-01-26T16:41:09.088Z,6.70
2019-01-26T16:46:06.485Z,6.60
2019-01-26T16:51:04.387Z,6.60
2019-01-26T16:55:54.807Z,6.50
2019-01-26T17:00:44.039Z,6.50
2019-01-26T17:05:50.297Z,6.50
2019-01-26T17:10:53.765Z,6.40
2019-01-26T17:15:56.683Z,6.30
2019-01-26T17:20:45.613Z,6.30
2019-01-26T17:25:50.650Z,6.20
2019-01-26T17:30:53.557Z,6.30
2019-01-26T17:35:42.318Z,6.20
2019-01-26T17:40:55.421Z,6.20
2019-01-26T17:45:55.157Z,6.20
2019-01-26T17:50:58.292Z,6.20
2019-01-26T17:56:02.690Z,6.20
2019-01-26T18:01:06.180Z,6.20
2019-01-26T18:05:53.171Z,6.20
2019-01-26T18:11:01.937Z,6.20
2019-01-26T18:16:03.655Z,6.20
2019-01-26T18:21:07.002Z,6.20
2019-01-26T18:26:18.857Z,6.10
2019-01-26T18:31:19.581Z,6.10
2019-01-26T18:36:22.856Z,6.10
2019-01-26T18:41:26.271Z,6.10
2019-01-26T18:46:31.048Z,6.10
2019-01-26T18:51:36.003Z,6.10
2019-01-26T18:56:39.033Z,6.10
2019-01-26T19:01:43.606Z,6.10
2019-01-26T19:06:34.013Z,6.10
2019-01-26T19:11:37.685Z,6.10
2019-01-26T19:16:45.761Z,6.10
2019-01-26T19:21:49.910Z,6.10
2019-01-26T19:26:53.384Z,6.10
2019-01-26T19:31:57.713Z,6.20
2019-01-26T19:37:00.980Z,6.20
2019-01-26T19:42:05.512Z,6.30
2019-01-26T19:47:15.717Z,6.30
2019-01-26T19:52:49.187Z,6.40
2019-01-26T19:57:58.258Z,6.40
2019-01-26T20:03:01.447Z,6.50
2019-01-26T20:08:07.481Z,6.50
2019-01-26T20:13:13.558Z,6.50
2019-01-26T20:18:17.076Z,6.60
2019-01-26T20:23:21.787Z,6.60
2019-01-26T20:28:24.039Z,6.60
2019-01-26T20:33:26.083Z,6.70
2019-01-26T20:38:15.378Z,6.70
2019-01-26T20:43:24.039Z,6.70
2019-01-26T20:48:26.642Z,6.70
2019-01-26T20:53:22.319Z,6.70
2019-01-26T20:58:17.714Z,6.70
2019-01-26T21:03:24.789Z,6.70
2019-01-26T21:08:14.632Z,6.70
2019-01-26T21:13:21.728Z,6.70
2019-01-26T21:18:24.106Z,6.60
2019-01-26T21:23:27.019Z,6.60
2019-01-26T21:28:32.248Z,6.60
2019-01-26T21:33:35.609Z,6.50
2019-01-26T21:38:36.808Z,6.60
2019-01-26T21:43:49.835Z,6.60
2019-01-26T21:48:54.525Z,6.50
2019-01-26T21:53:57.268Z,6.60
2019-01-26T21:59:00.969Z,6.60
2019-01-26T22:04:05.605Z,6.60
2019-01-26T22:09:10.557Z,6.60
2019-01-26T22:14:07.932Z,6.60
2019-01-26T22:19:11.197Z,6.50
2019-01-26T22:24:14.761Z,6.50
2019-01-26T22:29:03.955Z,6.60
2019-01-26T22:33:55.917Z,6.70
2019-01-26T22:38:49.113Z,6.70
2019-01-26T22:43:39.117Z,6.80
2019-01-26T22:48:31.103Z,6.90
2019-01-26T22:53:22.753Z,6.80
2019-01-26T22:58:14.330Z,6.90
2019-01-26T23:03:08.301Z,6.80
2019-01-26T23:07:59.806Z,6.90
2019-01-26T23:12:51.822Z,6.90
2019-01-26T23:17:43.777Z,6.90
2019-01-26T23:22:35.841Z,6.90
2019-01-26T23:27:27.854Z,6.90
2019-01-26T23:32:19.517Z,6.90
2019-01-26T23:37:13.333Z,6.90
2019-01-26T23:42:05.605Z,6.90
2019-01-26T23:46:57.445Z,6.90
2019-01-26T23:51:50.957Z,6.80
2019-01-26T23:56:42.440Z,6.70
